Time;durP1;ratioP1;P1;durP2;ratioP2;P2;SDS_P1;SDS_P2;PMS_P1;PMS_P2;Temp;Humidity;BMP_temperature;BMP_pressure;BME280_temperature;BME280_humidity;BME280_pressure;Samples;Min_cycle;Max_cycle;Signal;HPM_P1;HPM_P2
2023/01/29 00:01:21;;;;;;;10.48;5.88;;;;;;;4.68;100.00;102324.56;5078912;28;20405;-52
2023/01/29 00:03:49;;;;;;;8.43;4.82;;;;;;;4.67;100.00;102314.97;5076295;28;20047;-56
2023/01/29 00:06:15;;;;;;;8.45;4.88;;;;;;;4.66;100.00;102313.31;5078180;28;20032;-50
2023/01/29 00:08:40;;;;;;;11.68;5.40;;;;;;;4.65;100.00;102319.50;5076455;28;20039;-52
2023/01/29 00:11:07;;;;;;;13.35;4.80;;;;;;;4.66;100.00;102311.50;5077359;28;20028;-50
2023/01/29 00:13:33;;;;;;;7.93;5.78;;;;;;;4.67;100.00;102310.53;5075501;28;20047;-53
2023/01/29 00:15:59;;;;;;;9.05;4.90;;;;;;;4.75;100.00;102320.53;5075503;28;20028;-55
2023/01/29 00:18:25;;;;;;;7.55;4.50;;;;;;;4.80;100.00;102314.00;5075609;28;20064;-53
2023/01/29 00:20:51;;;;;;;7.32;4.18;;;;;;;4.88;100.00;102312.59;5077018;28;20334;-50
2023/01/29 00:23:16;;;;;;;11.95;4.75;;;;;;;4.97;100.00;102307.53;5077083;28;20120;-52
2023/01/29 00:25:42;;;;;;;7.63;3.90;;;;;;;4.91;100.00;102309.78;5077111;28;20071;-52
2023/01/29 00:28:08;;;;;;;12.45;5.85;;;;;;;4.97;100.00;102299.66;5075659;28;20040;-53
2023/01/29 00:30:35;;;;;;;58.40;21.90;;;;;;;4.94;100.00;102304.31;5075618;28;20062;-54
2023/01/29 00:33:01;;;;;;;109.15;34.78;;;;;;;4.91;100.00;102302.75;5077677;28;20062;-55
2023/01/29 00:35:26;;;;;;;26.95;11.18;;;;;;;4.88;100.00;102302.09;5077261;28;20051;-55
2023/01/29 00:37:54;;;;;;;20.83;8.10;;;;;;;4.93;100.00;102307.88;5074731;28;20032;-53
2023/01/29 00:40:19;;;;;;;8.68;4.90;;;;;;;4.94;100.00;102302.50;5078108;28;20036;-53
2023/01/29 00:45:42;;;;;;;11.10;5.20;;;;;;;4.93;100.00;102305.25;5074243;28;20135;-54
2023/01/29 00:48:08;;;;;;;9.43;4.93;;;;;;;4.89;100.00;102304.63;5071833;28;20240;-54
2023/01/29 00:50:33;;;;;;;12.18;5.25;;;;;;;4.87;100.00;102296.00;5074001;28;20115;-55
2023/01/29 00:52:58;;;;;;;11.93;5.85;;;;;;;4.88;100.00;102292.44;5071924;28;20020;-52
2023/01/29 00:55:24;;;;;;;8.10;5.03;;;;;;;4.87;100.00;102303.06;5086003;28;20024;-53
2023/01/29 00:57:49;;;;;;;12.75;5.13;;;;;;;4.78;100.00;102297.50;5084302;28;20110;-51
2023/01/29 01:00:18;;;;;;;10.10;4.95;;;;;;;4.79;100.00;102291.28;5082501;28;20025;-52
2023/01/29 01:05:28;;;;;;;91.05;29.77;;;;;;;4.87;100.00;102295.19;5082208;28;20146;-52
2023/01/29 01:07:56;;;;;;;30.73;11.77;;;;;;;4.86;100.00;102289.09;5091428;28;20521;-51
2023/01/29 01:10:23;;;;;;;20.25;6.78;;;;;;;4.85;100.00;102292.63;5076424;28;20024;-55
2023/01/29 01:12:54;;;;;;;13.30;5.95;;;;;;;4.82;100.00;102284.97;5076279;28;20054;-52
2023/01/29 01:15:21;;;;;;;8.27;5.47;;;;;;;4.80;100.00;102294.75;5080004;28;20028;-51
2023/01/29 01:17:47;;;;;;;10.20;5.47;;;;;;;4.71;100.00;102285.75;5084987;28;20047;-52
2023/01/29 01:20:13;;;;;;;8.30;3.80;;;;;;;4.73;100.00;102293.53;5077872;28;20049;-54
2023/01/29 01:22:39;;;;;;;9.35;4.50;;;;;;;4.64;100.00;102279.25;5084805;28;20032;-54
2023/01/29 01:25:05;;;;;;;8.73;5.38;;;;;;;4.61;100.00;102278.63;5094751;28;20508;-53
2023/01/29 01:27:30;;;;;;;9.35;4.30;;;;;;;4.64;100.00;102283.66;5087364;28;20507;-52
2023/01/29 01:29:56;;;;;;;9.70;5.00;;;;;;;4.72;100.00;102291.84;5085227;28;20032;-55
2023/01/29 01:32:21;;;;;;;9.73;4.85;;;;;;;4.70;100.00;102283.22;5082704;28;20036;-54
2023/01/29 01:34:46;;;;;;;7.63;4.25;;;;;;;4.71;100.00;102279.66;5081262;28;20036;-51
2023/01/29 01:37:12;;;;;;;10.63;5.50;;;;;;;4.67;100.00;102284.28;5082574;28;20031;-52
2023/01/29 01:39:38;;;;;;;8.60;5.03;;;;;;;4.71;100.00;102285.75;5092267;28;20064;-55
2023/01/29 01:42:09;;;;;;;10.02;4.82;;;;;;;4.70;100.00;102277.97;5084598;28;20051;-52
2023/01/29 01:44:53;;;;;;;10.82;4.82;;;;;;;4.70;100.00;102283.22;5084270;28;20028;-52
2023/01/29 01:47:30;;;;;;;10.60;5.22;;;;;;;4.73;100.00;102277.75;5094884;28;20510;-51
2023/01/29 01:50:01;;;;;;;11.05;4.82;;;;;;;4.81;100.00;102278.06;5090171;28;20028;-51
2023/01/29 01:52:30;;;;;;;6.97;4.38;;;;;;;4.81;100.00;102278.88;5090750;28;20060;-52
2023/01/29 01:54:57;;;;;;;8.20;4.03;;;;;;;4.81;100.00;102285.94;5079713;28;20055;-57
2023/01/29 01:57:24;;;;;;;9.40;4.53;;;;;;;4.78;100.00;102287.00;5090563;28;20032;-53
2023/01/29 01:59:58;;;;;;;8.27;4.93;;;;;;;4.75;100.00;102283.72;5099161;28;20044;-55
2023/01/29 02:10:44;;;;;;;6.95;4.25;;;;;;;4.82;100.00;102288.44;5082127;28;20036;-54
2023/01/29 02:13:11;;;;;;;6.53;4.30;;;;;;;4.79;100.00;102285.19;5081830;28;20071;-54
2023/01/29 02:15:40;;;;;;;7.55;3.60;;;;;;;4.75;100.00;102292.47;5093473;28;20020;-53
2023/01/29 02:18:07;;;;;;;7.75;4.13;;;;;;;4.82;100.00;102292.88;5087027;28;20036;-55
2023/01/29 02:20:34;;;;;;;7.13;4.28;;;;;;;4.80;100.00;102294.75;5091632;28;20473;-52
2023/01/29 02:23:41;;;;;;;7.40;4.38;;;;;;;4.81;100.00;102293.81;5090834;28;20028;-52
2023/01/29 02:26:38;;;;;;;7.05;4.47;;;;;;;4.76;100.00;102283.63;5086340;28;20566;-56
2023/01/29 02:29:22;;;;;;;5.57;3.13;;;;;;;4.75;100.00;102281.09;5086971;28;20032;-53
2023/01/29 02:32:16;;;;;;;7.22;3.08;;;;;;;4.77;100.00;102289.72;5091469;28;20032;-53
2023/01/29 02:37:53;;;;;;;4.15;3.70;;;;;;;4.88;100.00;102291.59;5081815;28;20056;-53
2023/01/29 02:40:27;;;;;;;6.47;3.97;;;;;;;4.91;100.00;102280.88;5074975;28;20039;-52
2023/01/29 02:43:21;;;;;;;6.85;3.63;;;;;;;4.92;100.00;102282.53;5086879;28;20055;-53
2023/01/29 02:46:14;;;;;;;6.28;4.28;;;;;;;4.90;100.00;102273.91;5080471;28;20120;-56
2023/01/29 02:48:52;;;;;;;5.45;3.42;;;;;;;4.89;100.00;102280.97;5083809;28;20501;-54
2023/01/29 02:51:28;;;;;;;5.35;3.85;;;;;;;5.01;100.00;102280.09;5082905;28;20067;-56
2023/01/29 02:54:05;;;;;;;7.03;4.07;;;;;;;5.07;100.00;102272.72;5082630;28;20121;-53
2023/01/29 02:56:41;;;;;;;10.70;4.07;;;;;;;5.05;100.00;102270.19;5077436;28;20081;-54
2023/01/29 02:59:14;;;;;;;8.60;4.50;;;;;;;5.07;100.00;102270.91;5091020;28;20040;-53
2023/01/29 03:01:52;;;;;;;10.00;4.00;;;;;;;5.07;100.00;102265.66;5088689;27;20425;-52
2023/01/29 03:04:23;;;;;;;7.63;4.20;;;;;;;5.11;100.00;102263.63;5078380;28;20042;-53
2023/01/29 03:07:06;;;;;;;7.57;4.13;;;;;;;5.17;100.00;102256.16;5088416;28;20096;-55
2023/01/29 03:09:44;;;;;;;8.65;4.47;;;;;;;5.12;100.00;102254.81;5078143;28;20024;-50
2023/01/29 03:12:32;;;;;;;7.03;5.10;;;;;;;5.08;100.00;102248.94;5081863;28;20156;-54
2023/01/29 03:15:10;;;;;;;6.50;4.03;;;;;;;5.14;100.00;102239.78;5081142;28;20040;-53
2023/01/29 03:17:44;;;;;;;8.98;4.18;;;;;;;5.12;100.00;102233.78;5086783;28;20027;-50
2023/01/29 03:20:16;;;;;;;10.95;4.32;;;;;;;5.14;100.00;102229.25;5081847;28;20066;-53
2023/01/29 03:22:47;;;;;;;6.40;3.67;;;;;;;5.18;100.00;102234.16;5081891;28;20028;-51
2023/01/29 03:33:48;;;;;;;3.95;2.70;;;;;;;5.32;100.00;102217.38;5086954;28;20038;-52
2023/01/29 03:36:18;;;;;;;6.53;3.08;;;;;;;5.30;100.00;102219.28;5077045;28;20494;-53
2023/01/29 03:38:44;;;;;;;5.90;3.40;;;;;;;5.21;100.00;102215.53;5083370;28;20097;-55
2023/01/29 03:41:14;;;;;;;5.68;3.47;;;;;;;5.18;100.00;102222.81;5082827;28;20074;-52
2023/01/29 03:43:51;;;;;;;4.63;2.80;;;;;;;5.13;100.00;102211.78;5076194;28;20052;-52
2023/01/29 03:46:31;;;;;;;5.03;2.95;;;;;;;4.97;100.00;102212.91;5083954;28;20469;-55
2023/01/29 03:49:31;;;;;;;3.05;2.80;;;;;;;4.92;100.00;102212.41;5084699;28;20042;-54
2023/01/29 03:52:02;;;;;;;6.50;3.38;;;;;;;4.84;100.00;102208.66;5067909;28;20040;-52
2023/01/29 03:54:41;;;;;;;5.78;3.65;;;;;;;4.75;100.00;102202.25;5084311;28;20397;-56
2023/01/29 03:57:16;;;;;;;6.72;3.85;;;;;;;4.67;100.00;102207.25;5081471;28;20060;-53
2023/01/29 04:00:00;;;;;;;5.38;3.47;;;;;;;4.69;100.00;102213.22;5084288;28;20028;-55
2023/01/29 04:02:30;;;;;;;3.60;2.72;;;;;;;4.71;100.00;102209.53;5094552;28;20105;-52
2023/01/29 04:05:00;;;;;;;4.07;2.63;;;;;;;4.67;100.00;102201.97;5094081;28;20344;-53
2023/01/29 04:07:32;;;;;;;4.90;2.88;;;;;;;4.48;100.00;102208.56;5095384;28;20020;-55
2023/01/29 04:10:03;;;;;;;4.57;2.88;;;;;;;4.40;100.00;102204.81;5089589;28;20123;-53
2023/01/29 04:12:44;;;;;;;4.85;3.40;;;;;;;4.30;100.00;102202.81;5081541;28;20086;-50
2023/01/29 04:15:15;;;;;;;5.30;2.72;;;;;;;4.22;100.00;102197.25;5086757;28;20490;-54
2023/01/29 04:17:47;;;;;;;6.60;2.25;;;;;;;4.12;100.00;102197.06;5076139;28;20028;-52
2023/01/29 04:20:13;;;;;;;5.97;2.95;;;;;;;4.11;100.00;102190.16;5077423;28;20263;-55
2023/01/29 04:22:40;;;;;;;4.70;3.25;;;;;;;4.16;100.00;102184.59;5078487;28;20435;-56
2023/01/29 04:25:14;;;;;;;8.57;3.05;;;;;;;4.00;100.00;102174.31;5082482;28;20035;-55
2023/01/29 04:27:49;;;;;;;3.65;2.53;;;;;;;3.83;100.00;102172.00;5083645;28;20476;-53
2023/01/29 04:30:29;;;;;;;2.53;2.20;;;;;;;3.83;100.00;102185.97;5075777;28;20032;-55
2023/01/29 04:33:16;;;;;;;5.25;3.17;;;;;;;3.92;100.00;102180.09;5078501;28;20032;-54
2023/01/29 04:35:41;;;;;;;5.30;2.40;;;;;;;3.96;100.00;102188.59;5084494;28;20035;-57
2023/01/29 04:38:24;;;;;;;4.72;3.25;;;;;;;4.05;100.00;102181.84;5079004;28;20059;-51
2023/01/29 04:41:10;;;;;;;4.78;3.00;;;;;;;4.04;100.00;102177.56;5079584;28;20025;-52
2023/01/29 04:43:44;;;;;;;5.22;2.92;;;;;;;3.93;100.00;102178.31;5078427;28;20055;-52
2023/01/29 04:46:19;;;;;;;5.45;2.40;;;;;;;3.77;100.00;102180.28;5073832;28;20123;-54
2023/01/29 04:48:44;;;;;;;4.90;3.35;;;;;;;3.68;100.00;102182.59;5082454;28;20020;-52
2023/01/29 04:51:14;;;;;;;4.70;3.25;;;;;;;3.66;100.00;102181.84;5081065;28;20058;-54
2023/01/29 04:53:54;;;;;;;9.23;3.05;;;;;;;3.76;100.00;102189.94;5086136;28;20077;-54
2023/01/29 04:56:28;;;;;;;6.55;4.00;;;;;;;3.76;100.00;102181.25;5094457;28;20055;-54
2023/01/29 04:59:20;;;;;;;5.65;3.67;;;;;;;3.79;100.00;102176.63;5085098;28;20027;-53
2023/01/29 05:01:47;;;;;;;6.97;3.95;;;;;;;3.77;100.00;102168.03;5091702;28;20027;-55
2023/01/29 05:04:17;;;;;;;10.40;4.35;;;;;;;3.82;100.00;102168.56;5082540;28;20465;-54
2023/01/29 05:06:43;;;;;;;6.72;4.75;;;;;;;3.92;100.00;102158.25;5087326;28;20047;-53
2023/01/29 05:09:12;;;;;;;8.45;3.72;;;;;;;4.02;100.00;102153.19;5090513;28;20028;-54
2023/01/29 05:11:37;;;;;;;5.38;3.17;;;;;;;4.10;100.00;102151.69;5088027;28;20020;-52
2023/01/29 05:14:07;;;;;;;5.10;2.78;;;;;;;4.06;100.00;102154.66;5093713;28;20042;-55
2023/01/29 05:16:55;;;;;;;5.53;3.60;;;;;;;4.00;100.00;102137.56;5083166;28;20063;-53
2023/01/29 05:19:20;;;;;;;3.95;2.50;;;;;;;3.93;100.00;102136.31;5087145;28;20500;-57
2023/01/29 05:21:48;;;;;;;4.47;3.20;;;;;;;4.01;100.00;102139.22;5086382;28;20024;-55
2023/01/29 05:24:24;;;;;;;4.50;2.95;;;;;;;4.04;100.00;102138.19;5086074;28;20034;-53
2023/01/29 05:29:41;;;;;;;2.45;2.25;;;;;;;3.98;100.00;102131.59;5073310;28;21918;-54
2023/01/29 05:32:07;;;;;;;5.10;2.73;;;;;;;3.95;100.00;102121.31;5085286;28;20174;-55
2023/01/29 05:34:33;;;;;;;5.35;2.38;;;;;;;3.91;100.00;102122.44;5088722;28;20107;-57
2023/01/29 05:36:58;;;;;;;4.30;2.08;;;;;;;3.88;100.00;102123.50;5081592;28;20028;-50
2023/01/29 05:39:23;;;;;;;7.05;3.10;;;;;;;4.10;100.00;102132.50;5085094;28;20032;-51
2023/01/29 05:41:49;;;;;;;5.75;3.05;;;;;;;4.20;100.00;102127.44;5090633;28;20393;-54
2023/01/29 05:44:14;;;;;;;3.95;2.38;;;;;;;4.30;100.00;102126.66;5091135;28;20458;-50
2023/01/29 05:46:39;;;;;;;6.22;2.35;;;;;;;4.34;100.00;102120.25;5082978;28;20020;-54
2023/01/29 05:49:05;;;;;;;3.00;2.67;;;;;;;4.40;100.00;102113.72;5086856;28;20037;-52
2023/01/29 05:51:30;;;;;;;2.83;1.88;;;;;;;4.42;100.00;102117.06;5083535;28;20115;-52
2023/01/29 05:53:56;;;;;;;4.32;2.30;;;;;;;4.44;100.00;102117.81;5085814;28;20382;-52
2023/01/29 05:56:21;;;;;;;4.25;2.45;;;;;;;4.52;100.00;102112.84;5079150;28;20028;-52
2023/01/29 05:58:46;;;;;;;4.47;2.55;;;;;;;4.57;100.00;102110.72;5086210;28;20081;-56
2023/01/29 06:01:15;;;;;;;4.63;2.63;;;;;;;4.54;100.00;102110.06;5083663;28;20032;-51
2023/01/29 06:03:40;;;;;;;4.22;1.88;;;;;;;4.49;100.00;102106.94;5081772;28;20032;-53
2023/01/29 06:06:06;;;;;;;4.10;2.60;;;;;;;4.46;100.00;102110.63;5091518;28;20050;-53
2023/01/29 06:08:31;;;;;;;6.72;4.28;;;;;;;4.48;100.00;102095.59;5082426;28;20025;-55
2023/01/29 06:10:56;;;;;;;4.00;2.83;;;;;;;4.46;100.00;102094.88;5087868;28;20019;-53
2023/01/29 06:13:22;;;;;;;10.23;3.30;;;;;;;4.47;100.00;102083.44;5089886;28;20047;-56
2023/01/29 06:15:47;;;;;;;4.20;3.13;;;;;;;4.43;100.00;102083.75;5090806;28;20022;-55
2023/01/29 06:18:12;;;;;;;8.68;3.53;;;;;;;4.38;100.00;102089.34;5084125;28;20643;-55
2023/01/29 06:20:38;;;;;;;6.00;2.63;;;;;;;4.39;100.00;102088.41;5076644;28;20020;-57
2023/01/29 06:23:03;;;;;;;7.50;3.53;;;;;;;4.38;100.00;102090.16;5081915;28;20024;-55
2023/01/29 06:25:29;;;;;;;7.60;3.40;;;;;;;4.49;100.00;102084.16;5087004;28;20114;-55
2023/01/29 06:27:54;;;;;;;4.38;3.42;;;;;;;4.44;100.00;102082.81;5083812;28;20032;-56
2023/01/29 06:30:19;;;;;;;5.85;2.80;;;;;;;4.48;100.00;102079.84;5083502;28;20036;-53
2023/01/29 06:32:45;;;;;;;6.15;4.07;;;;;;;4.52;100.00;102083.09;5085664;28;20044;-55
2023/01/29 06:35:10;;;;;;;5.70;3.50;;;;;;;4.54;100.00;102083.81;5090678;28;20137;-52
2023/01/29 06:37:36;;;;;;;6.60;3.95;;;;;;;4.52;100.00;102085.72;5098729;28;20169;-53
2023/01/29 06:40:01;;;;;;;5.53;3.80;;;;;;;4.53;100.00;102076.88;5088164;28;20024;-55
2023/01/29 06:42:27;;;;;;;5.50;3.30;;;;;;;4.50;100.00;102077.94;5080836;28;20040;-53
2023/01/29 06:44:56;;;;;;;7.53;3.90;;;;;;;4.43;100.00;102073.25;5085095;28;20021;-54
2023/01/29 06:47:22;;;;;;;5.45;3.60;;;;;;;4.36;100.00;102068.47;5088918;28;20094;-54
2023/01/29 06:49:48;;;;;;;10.13;3.88;;;;;;;4.32;100.00;102064.38;5082484;28;20024;-57
2023/01/29 06:52:13;;;;;;;6.75;3.78;;;;;;;4.24;100.00;102076.38;5077251;28;20039;-55
2023/01/29 06:54:39;;;;;;;5.90;3.47;;;;;;;4.15;100.00;102073.44;5083799;28;20030;-52
2023/01/29 06:57:04;;;;;;;6.82;3.28;;;;;;;4.14;100.00;102069.16;5088135;28;20153;-52
2023/01/29 06:59:29;;;;;;;6.68;4.32;;;;;;;4.17;100.00;102062.84;5093776;28;20027;-54
2023/01/29 07:01:55;;;;;;;5.75;2.88;;;;;;;4.19;100.00;102065.38;5084164;28;20043;-53
2023/01/29 07:04:20;;;;;;;9.82;4.93;;;;;;;4.17;100.00;102062.03;5077799;28;20055;-51
2023/01/29 07:06:45;;;;;;;8.65;4.35;;;;;;;4.21;100.00;102071.34;5077196;28;20087;-55
2023/01/29 07:09:12;;;;;;;7.07;3.55;;;;;;;4.25;100.00;102067.56;5078334;28;20418;-55
2023/01/29 07:11:38;;;;;;;6.45;3.53;;;;;;;4.28;100.00;102073.41;5065037;28;20393;-54
2023/01/29 07:14:04;;;;;;;6.18;3.50;;;;;;;4.33;100.00;102086.22;5073412;28;20051;-54
2023/01/29 07:16:29;;;;;;;6.85;3.15;;;;;;;4.34;100.00;102072.97;5073018;28;20530;-55
2023/01/29 07:18:55;;;;;;;7.10;3.58;;;;;;;4.34;100.00;102075.59;5084205;28;20491;-52
2023/01/29 07:21:20;;;;;;;6.25;4.55;;;;;;;4.35;100.00;102068.56;5079036;28;20031;-53
2023/01/29 07:23:46;;;;;;;8.40;4.07;;;;;;;4.34;100.00;102066.91;5088084;28;20027;-54
2023/01/29 07:26:11;;;;;;;11.93;4.07;;;;;;;4.32;100.00;102059.13;5091443;28;20071;-52
2023/01/29 07:28:38;;;;;;;8.90;4.57;;;;;;;4.36;100.00;102062.34;5083615;28;20035;-54
2023/01/29 07:31:04;;;;;;;12.55;4.05;;;;;;;4.40;100.00;102060.34;5090620;28;20032;-52
2023/01/29 07:33:29;;;;;;;10.60;5.15;;;;;;;4.44;100.00;102069.66;5090342;28;20024;-50
2023/01/29 07:35:54;;;;;;;6.07;3.78;;;;;;;4.54;100.00;102062.78;5094379;28;20400;-52
2023/01/29 07:38:20;;;;;;;6.97;3.92;;;;;;;4.60;100.00;102062.34;5083206;28;20028;-55
2023/01/29 07:40:46;;;;;;;11.88;3.92;;;;;;;4.63;100.00;102063.91;5085462;28;20020;-54
2023/01/29 07:43:11;;;;;;;6.47;3.40;;;;;;;4.67;100.00;102062.72;5083285;28;20174;-55
2023/01/29 07:45:38;;;;;;;8.48;4.10;;;;;;;4.64;100.00;102068.22;5077111;28;20032;-55
2023/01/29 07:48:05;;;;;;;8.82;4.43;;;;;;;4.68;100.00;102072.31;5091375;28;20197;-51
2023/01/29 07:50:31;;;;;;;6.43;3.53;;;;;;;4.67;100.00;102067.97;5084268;28;20047;-55
2023/01/29 07:52:57;;;;;;;9.38;4.18;;;;;;;4.77;100.00;102064.56;5084283;28;20358;-57
2023/01/29 07:55:23;;;;;;;12.85;3.33;;;;;;;4.82;100.00;102058.97;5085273;28;20028;-56
2023/01/29 07:57:56;;;;;;;15.55;4.82;;;;;;;4.85;100.00;102060.50;5084778;28;20135;-54
2023/01/29 08:00:22;;;;;;;7.55;3.80;;;;;;;4.83;100.00;102058.03;5084719;28;20389;-54
2023/01/29 08:02:47;;;;;;;10.63;4.30;;;;;;;4.84;100.00;102064.94;5074869;28;20032;-56
2023/01/29 08:05:12;;;;;;;12.35;4.70;;;;;;;4.76;100.00;102064.69;5085729;28;20029;-54
2023/01/29 08:07:38;;;;;;;9.02;4.45;;;;;;;4.82;100.00;102066.84;5095138;28;20024;-55
2023/01/29 08:10:03;;;;;;;7.03;3.95;;;;;;;4.79;100.00;102061.81;5076369;28;20031;-51
2023/01/29 08:12:29;;;;;;;8.02;4.18;;;;;;;4.70;100.00;102063.34;5081480;28;20066;-52
2023/01/29 08:14:54;;;;;;;9.25;4.03;;;;;;;4.76;100.00;102059.44;5091754;28;20042;-53
2023/01/29 08:17:20;;;;;;;8.50;3.95;;;;;;;4.79;100.00;102056.56;5082635;28;20583;-57
2023/01/29 08:19:45;;;;;;;15.38;4.68;;;;;;;4.83;100.00;102058.03;5082850;28;20107;-54
2023/01/29 08:22:10;;;;;;;7.28;4.43;;;;;;;4.84;100.00;102058.84;5085716;28;20461;-55
2023/01/29 08:24:35;;;;;;;6.78;4.68;;;;;;;4.87;100.00;102063.88;5085185;28;20090;-53
2023/01/29 08:27:01;;;;;;;6.88;3.38;;;;;;;4.88;100.00;102055.03;5091416;28;20063;-54
2023/01/29 08:29:26;;;;;;;9.45;4.07;;;;;;;4.84;100.00;102054.44;5087702;28;20120;-54
2023/01/29 08:31:51;;;;;;;14.27;5.38;;;;;;;4.69;100.00;102056.41;5088451;28;20028;-56
2023/01/29 08:34:17;;;;;;;10.18;5.10;;;;;;;4.69;100.00;102050.31;5087049;28;20038;-54
2023/01/29 08:36:42;;;;;;;12.20;4.57;;;;;;;4.63;100.00;102053.41;5086539;28;20028;-54
2023/01/29 08:39:08;;;;;;;23.60;7.05;;;;;;;4.61;100.00;102057.94;5082765;28;20035;-53
2023/01/29 08:41:33;;;;;;;10.68;4.47;;;;;;;4.62;100.00;102052.56;5090352;28;20031;-54
2023/01/29 08:44:00;;;;;;;14.15;4.38;;;;;;;4.65;100.00;102051.50;5089124;28;20454;-51
2023/01/29 08:46:25;;;;;;;9.63;4.78;;;;;;;4.69;100.00;102050.31;5080945;28;21595;-55
2023/01/29 08:48:50;;;;;;;11.35;4.78;;;;;;;4.78;100.00;102055.72;5087022;28;20032;-52
2023/01/29 08:51:16;;;;;;;10.35;4.55;;;;;;;4.77;100.00;102053.19;5083032;28;20076;-52
2023/01/29 08:53:41;;;;;;;7.78;4.10;;;;;;;4.77;100.00;102055.84;5084815;28;20489;-56
2023/01/29 08:56:07;;;;;;;14.88;5.28;;;;;;;4.77;100.00;102053.19;5083074;28;20558;-55
2023/01/29 08:58:32;;;;;;;11.35;5.65;;;;;;;4.78;100.00;102053.09;5085604;28;20571;-57
2023/01/29 09:01:08;;;;;;;9.43;4.90;;;;;;;4.91;100.00;102057.44;5082357;28;20457;-53
2023/01/29 09:03:34;;;;;;;15.35;6.13;;;;;;;5.02;100.00;102055.66;5080740;28;20046;-56
2023/01/29 09:05:59;;;;;;;11.60;5.13;;;;;;;5.04;100.00;102052.94;5093396;28;20161;-53
2023/01/29 09:08:24;;;;;;;18.20;6.88;;;;;;;5.00;100.00;102054.09;5084404;28;20065;-55
2023/01/29 09:10:50;;;;;;;19.13;9.02;;;;;;;4.97;100.00;102054.34;5082278;28;20036;-56
2023/01/29 09:13:15;;;;;;;17.77;8.27;;;;;;;5.02;100.00;102052.19;5080593;28;20037;-53
2023/01/29 09:15:40;;;;;;;13.20;7.53;;;;;;;4.99;100.00;102055.06;5096480;28;20027;-53
2023/01/29 09:18:06;;;;;;;16.65;6.25;;;;;;;4.99;100.00;102052.44;5078658;28;20051;-53
2023/01/29 09:20:31;;;;;;;12.18;6.57;;;;;;;5.03;100.00;102062.63;5081515;28;20086;-54
2023/01/29 09:22:58;;;;;;;16.08;7.40;;;;;;;5.03;100.00;102053.88;5077416;28;20985;-52
2023/01/29 09:25:23;;;;;;;11.63;5.63;;;;;;;5.07;100.00;102065.00;5085059;28;20130;-54
2023/01/29 09:27:49;;;;;;;11.00;5.53;;;;;;;5.05;100.00;102057.22;5082878;28;20115;-54
2023/01/29 09:30:14;;;;;;;14.77;6.30;;;;;;;5.12;100.00;102060.25;5086824;28;20028;-55
2023/01/29 09:32:39;;;;;;;11.70;5.20;;;;;;;5.06;100.00;102060.69;5075624;28;20420;-51
2023/01/29 09:35:05;;;;;;;8.90;4.82;;;;;;;5.07;100.00;102054.50;5077267;28;20045;-54
2023/01/29 09:37:30;;;;;;;10.60;4.82;;;;;;;5.26;100.00;102060.00;5074344;28;20262;-52
2023/01/29 09:39:56;;;;;;;13.98;5.65;;;;;;;5.30;100.00;102058.81;5073802;28;20021;-55
2023/01/29 09:42:35;;;;;;;11.73;4.68;;;;;;;5.31;100.00;102057.84;5075358;28;20097;-56
2023/01/29 09:45:09;;;;;;;16.38;5.60;;;;;;;5.24;100.00;102062.78;5078554;28;20074;-55
2023/01/29 09:47:35;;;;;;;12.10;6.30;;;;;;;5.21;100.00;102056.88;5080586;28;20030;-57
2023/01/29 09:50:24;;;;;;;11.85;5.32;;;;;;;5.22;100.00;102059.41;5084374;28;20036;-55
2023/01/29 09:53:12;;;;;;;8.93;4.57;;;;;;;5.22;100.00;102050.69;5080275;28;20032;-51
2023/01/29 09:55:44;;;;;;;12.05;5.43;;;;;;;5.46;100.00;102043.53;5085905;28;20058;-53
2023/01/29 09:58:17;;;;;;;13.50;5.50;;;;;;;5.50;100.00;102041.50;5088894;28;20028;-51
2023/01/29 10:00:45;;;;;;;17.20;5.80;;;;;;;5.58;100.00;102043.53;5086532;28;20032;-51
2023/01/29 10:03:49;;;;;;;11.80;5.65;;;;;;;5.62;100.00;102042.31;5090188;28;20020;-52
2023/01/29 10:06:24;;;;;;;11.90;4.97;;;;;;;5.62;100.00;102040.53;5033455;28;20036;-53
2023/01/29 10:09:20;;;;;;;14.68;6.38;;;;;;;5.64;100.00;102043.06;5069519;28;21321;-50
2023/01/29 10:12:06;;;;;;;12.05;6.50;;;;;;;5.65;100.00;102044.72;5084776;28;20504;-55
2023/01/29 10:15:07;;;;;;;10.70;5.57;;;;;;;5.69;100.00;102033.00;5082355;28;20082;-56
2023/01/29 10:17:32;;;;;;;11.00;4.95;;;;;;;5.82;100.00;102020.53;5072756;28;21180;-50
2023/01/29 10:20:28;;;;;;;10.60;5.28;;;;;;;5.87;100.00;102018.38;5078913;28;20050;-52
2023/01/29 10:23:13;;;;;;;13.57;4.95;;;;;;;5.94;100.00;102012.63;5085727;28;20722;-53
2023/01/29 10:25:40;;;;;;;7.13;5.30;;;;;;;5.98;100.00;102009.63;5085725;28;20058;-51
2023/01/29 10:28:17;;;;;;;10.15;5.28;;;;;;;6.05;100.00;102017.91;5085199;28;20035;-51
2023/01/29 10:31:10;;;;;;;10.43;6.10;;;;;;;6.00;100.00;102012.16;5086605;28;20035;-54
2023/01/29 10:33:39;;;;;;;7.57;4.60;;;;;;;6.00;100.00;102009.53;5085016;28;20107;-51
2023/01/29 10:36:09;;;;;;;8.57;3.92;;;;;;;6.06;100.00;102001.13;5082971;28;20051;-52
2023/01/29 10:38:46;;;;;;;7.20;4.20;;;;;;;6.08;100.00;102000.03;5085096;28;20035;-54
2023/01/29 10:41:47;;;;;;;17.27;8.35;;;;;;;6.15;100.00;102000.38;5083039;28;20062;-52
2023/01/29 10:44:24;;;;;;;9.88;4.55;;;;;;;6.19;100.00;102001.78;5082875;28;20044;-51
2023/01/29 10:47:11;;;;;;;8.40;4.53;;;;;;;6.21;100.00;101989.34;5078772;28;20104;-57
2023/01/29 10:49:39;;;;;;;15.00;6.80;;;;;;;6.20;100.00;101986.84;5082675;28;20040;-55
2023/01/29 10:52:10;;;;;;;8.90;5.30;;;;;;;6.21;100.00;101984.06;5083460;28;20146;-53
2023/01/29 10:55:09;;;;;;;10.85;6.57;;;;;;;6.30;100.00;101978.06;5078628;28;20504;-51
2023/01/29 10:57:55;;;;;;;9.13;4.95;;;;;;;6.33;100.00;101976.97;5085543;28;20040;-51
2023/01/29 11:00:25;;;;;;;14.23;5.22;;;;;;;6.40;100.00;101977.28;5084138;28;20024;-53
2023/01/29 11:02:51;;;;;;;11.82;6.38;;;;;;;6.43;100.00;101966.47;5084288;28;20030;-53
2023/01/29 11:05:34;;;;;;;9.10;4.55;;;;;;;6.51;100.00;101974.63;5086330;28;20032;-57
2023/01/29 11:08:12;;;;;;;14.98;6.05;;;;;;;6.53;100.00;101962.97;5086053;28;20390;-52
2023/01/29 11:11:05;;;;;;;16.83;4.40;;;;;;;6.62;100.00;101965.81;5081853;28;20035;-55
2023/01/29 11:13:39;;;;;;;7.75;4.10;;;;;;;6.65;100.00;101958.47;5086735;28;20024;-53
2023/01/29 11:16:05;;;;;;;12.02;4.63;;;;;;;6.71;100.00;101965.88;5083558;28;20043;-53
2023/01/29 11:18:55;;;;;;;6.43;3.35;;;;;;;6.70;100.00;101961.53;5086780;28;20423;-51
2023/01/29 11:21:21;;;;;;;8.30;4.82;;;;;;;6.72;100.00;101950.88;5084581;28;20464;-51
2023/01/29 11:23:47;;;;;;;7.47;4.97;;;;;;;6.84;100.00;101949.84;5084754;28;20024;-55
2023/01/29 11:26:18;;;;;;;6.97;3.60;;;;;;;6.94;100.00;101937.56;5082947;28;20025;-52
2023/01/29 11:28:46;;;;;;;6.33;4.63;;;;;;;7.11;100.00;101932.63;5071151;28;20409;-55
2023/01/29 11:31:38;;;;;;;10.77;4.57;;;;;;;7.14;100.00;101935.81;5070697;28;20466;-50
2023/01/29 11:34:19;;;;;;;8.32;3.55;;;;;;;7.18;100.00;101929.31;5070307;28;21760;-54
2023/01/29 11:36:45;;;;;;;9.82;4.50;;;;;;;7.27;100.00;101924.19;5079356;28;20060;-54
2023/01/29 11:39:17;;;;;;;11.32;5.03;;;;;;;7.25;100.00;101915.59;5082683;28;20551;-51
2023/01/29 11:41:43;;;;;;;;;;;;;;;7.27;100.00;101895.19;5083821;28;20034;-54
2023/01/29 11:44:28;;;;;;;5.15;3.50;;;;;;;7.25;100.00;101899.75;5081488;28;20016;-52
2023/01/29 11:46:57;;;;;;;6.75;2.63;;;;;;;7.26;100.00;101896.16;5076562;28;20587;-53
2023/01/29 11:49:34;;;;;;;9.48;4.90;;;;;;;7.42;100.00;101893.84;5086071;28;20071;-51
2023/01/29 11:52:06;;;;;;;8.65;3.97;;;;;;;7.45;100.00;101901.47;5086514;28;20105;-54
2023/01/29 11:54:38;;;;;;;6.82;3.15;;;;;;;7.49;100.00;101892.31;5071295;28;20025;-50
2023/01/29 11:57:04;;;;;;;5.38;3.40;;;;;;;7.64;100.00;101896.25;5083592;28;20055;-54
2023/01/29 11:59:41;;;;;;;7.18;3.80;;;;;;;7.63;100.00;101877.88;5081150;28;20028;-53
2023/01/29 12:02:17;;;;;;;7.45;4.15;;;;;;;7.42;100.00;101881.47;5074888;28;20035;-57
2023/01/29 12:04:42;;;;;;;4.25;2.47;;;;;;;7.31;100.00;101878.13;5080182;28;20017;-53
2023/01/29 12:07:16;;;;;;;5.38;2.85;;;;;;;7.40;100.00;101874.66;5079488;28;20047;-53